Time;durP1;ratioP1;P1;durP2;ratioP2;P2;SDS_P1;SDS_P2;PMS_P1;PMS_P2;Temp;Humidity;BMP_temperature;BMP_pressure;BME280_temperature;BME280_humidity;BME280_pressure;Samples;Min_cycle;Max_cycle;Signal;HPM_P1;HPM_P2
2022/09/01 00:00:29;;;;;;;1.40;1.27;;;14.80;99.90;;;;;;4926369;29;20464;-77
2022/09/01 00:03:51;;;;;;;1.33;1.27;;;14.80;99.90;;;;;;4928190;29;20559;-77
2022/09/01 00:06:58;;;;;;;;;;;;;;;;;;;;;
2022/09/01 00:10:21;;;;;;;1.50;1.40;;;14.70;99.90;;;;;;4923519;29;20464;-78
2022/09/01 00:13:40;;;;;;;2.43;1.30;;;14.70;99.90;;;;;;4924324;29;20546;-77
2022/09/01 00:20:24;;;;;;;1.37;1.30;;;14.60;99.90;;;;;;4930820;29;20475;-77
2022/09/01 00:23:37;;;;;;;1.23;1.13;;;14.50;99.90;;;;;;4929703;29;20476;-77
2022/09/01 00:26:50;;;;;;;1.50;1.40;;;14.50;99.90;;;;;;4926884;29;20491;-77
2022/09/01 00:29:56;;;;;;;1.63;1.53;;;14.50;99.90;;;;;;4928654;29;20452;-77
2022/09/01 00:33:07;;;;;;;;;;;;;;;;;;;;;
2022/09/01 00:36:31;;;;;;;1.30;1.27;;;14.40;99.90;;;;;;4928084;29;20835;-77
2022/09/01 00:39:43;;;;;;;2.23;1.30;;;14.40;99.90;;;;;;4928000;29;20468;-77
2022/09/01 00:42:43;;;;;;;1.20;1.20;;;14.40;99.90;;;;;;4925486;29;20464;-77
2022/09/01 00:46:24;;;;;;;1.73;1.47;;;14.40;99.90;;;;;;4928823;29;20531;-77
2022/09/01 00:49:51;;;;;;;1.43;1.33;;;14.30;99.90;;;;;;4928253;29;20456;-77
2022/09/01 00:56:20;;;;;;;;;;;;;;;;;;;;;
2022/09/01 00:59:19;;;;;;;1.67;1.47;;;14.20;99.90;;;;;;4930283;29;20591;-77
2022/09/01 01:02:57;;;;;;;;;;;;;;;;;;;;;
2022/09/01 01:06:25;;;;;;;1.60;1.50;;;14.20;99.90;;;;;;4928859;29;20555;-77
2022/09/01 01:09:43;;;;;;;1.70;1.60;;;14.10;99.90;;;;;;4926085;29;20991;-77
2022/09/01 01:12:51;;;;;;;1.60;1.50;;;14.10;99.90;;;;;;4921509;29;20459;-77
2022/09/01 01:15:59;;;;;;;1.80;1.60;;;14.00;99.90;;;;;;4925972;29;20885;-77
2022/09/01 01:18:59;;;;;;;1.60;1.50;;;14.00;99.90;;;;;;4926693;29;20472;-77
2022/09/01 01:25:30;;;;;;;1.67;1.57;;;14.00;99.90;;;;;;4926317;29;20467;-79
2022/09/01 01:28:38;;;;;;;2.50;1.70;;;14.00;99.90;;;;;;4929181;29;20530;-78
2022/09/01 01:31:52;;;;;;;1.70;1.60;;;14.00;99.90;;;;;;4925601;29;20463;-79
2022/09/01 01:38:24;;;;;;;1.83;1.50;;;13.90;99.90;;;;;;4935478;29;20574;-79
2022/09/01 01:41:45;;;;;;;1.60;1.50;;;13.80;99.90;;;;;;4924601;29;20456;-77
2022/09/01 01:44:43;;;;;;;1.60;1.50;;;13.80;99.90;;;;;;4931724;29;20467;-76
2022/09/01 01:47:53;;;;;;;1.90;1.80;;;13.80;99.90;;;;;;4930896;29;20456;-77
2022/09/01 01:51:05;;;;;;;1.70;1.60;;;13.80;99.90;;;;;;4932761;29;20459;-76
2022/09/01 01:54:09;;;;;;;2.30;1.93;;;13.70;99.90;;;;;;4928170;29;20464;-76
2022/09/01 01:57:34;;;;;;;1.67;1.57;;;13.70;99.90;;;;;;4929386;29;20475;-77
2022/09/01 02:00:34;;;;;;;1.77;1.60;;;13.70;99.90;;;;;;4928747;29;20464;-76
2022/09/01 02:03:40;;;;;;;1.70;1.60;;;13.60;99.90;;;;;;4925547;28;20554;-77
2022/09/01 02:06:44;;;;;;;1.50;1.40;;;13.60;99.90;;;;;;4928235;29;20467;-77
2022/09/01 02:09:39;;;;;;;2.10;1.77;;;13.50;99.90;;;;;;4928597;29;20455;-76
2022/09/01 02:12:47;;;;;;;1.70;1.60;;;13.50;99.90;;;;;;4920459;29;20960;-77
2022/09/01 02:15:52;;;;;;;1.87;1.77;;;13.50;99.90;;;;;;4923974;29;20547;-77
2022/09/01 02:18:58;;;;;;;2.23;2.03;;;13.50;99.90;;;;;;4928680;29;20534;-77
2022/09/01 02:22:13;;;;;;;1.73;1.63;;;13.40;99.90;;;;;;4933163;29;21042;-77
2022/09/01 02:25:30;;;;;;;2.43;1.80;;;13.50;99.90;;;;;;4930173;29;20602;-77
2022/09/01 02:29:03;;;;;;;2.17;2.07;;;13.40;99.90;;;;;;4928146;29;20455;-77
2022/09/01 02:32:22;;;;;;;1.80;1.70;;;13.40;99.90;;;;;;4930062;29;20835;-77
2022/09/01 02:35:26;;;;;;;1.77;1.67;;;13.40;99.90;;;;;;4930209;28;21048;-77
2022/09/01 02:38:33;;;;;;;1.60;1.50;;;13.40;99.90;;;;;;4929957;29;20486;-77
2022/09/01 02:41:27;;;;;;;2.00;1.90;;;13.30;99.90;;;;;;4932077;29;21035;-77
2022/09/01 02:44:44;;;;;;;1.80;1.70;;;13.30;99.90;;;;;;4933046;29;20467;-77
2022/09/01 02:47:53;;;;;;;1.80;1.70;;;13.20;99.90;;;;;;4928334;29;20467;-77
2022/09/01 02:50:51;;;;;;;2.30;1.60;;;13.20;99.90;;;;;;4931366;29;20551;-76
2022/09/01 02:57:44;;;;;;;2.90;1.90;;;13.20;99.90;;;;;;4927692;29;20476;-77
2022/09/01 03:01:29;;;;;;;2.00;1.90;;;13.20;99.90;;;;;;4933261;29;20484;-77
2022/09/01 03:04:37;;;;;;;2.03;1.83;;;13.10;99.90;;;;;;4930181;28;20608;-76
2022/09/01 03:07:53;;;;;;;;;;;;;;;;;;;;;
2022/09/01 03:11:02;;;;;;;2.00;1.90;;;13.10;99.90;;;;;;4929327;29;20514;-76
2022/09/01 03:14:13;;;;;;;1.90;1.80;;;13.00;99.90;;;;;;4931542;29;20448;-77
2022/09/01 03:17:16;;;;;;;2.80;2.00;;;13.00;99.90;;;;;;4931172;29;20619;-76
2022/09/01 03:20:18;;;;;;;1.90;1.80;;;13.00;99.90;;;;;;4932473;29;20487;-77
2022/09/01 03:23:35;;;;;;;2.50;2.30;;;12.90;99.90;;;;;;4933478;28;20554;-77
2022/09/01 03:26:50;;;;;;;2.00;1.90;;;12.90;99.90;;;;;;4927527;28;20583;-77
2022/09/01 03:29:57;;;;;;;2.40;2.20;;;12.90;99.90;;;;;;4929892;29;20449;-76
2022/09/01 03:32:57;;;;;;;1.80;1.70;;;12.90;99.90;;;;;;4926445;29;20511;-77
2022/09/01 03:39:33;;;;;;;2.17;2.03;;;12.80;99.90;;;;;;4929575;29;21066;-76
2022/09/01 03:45:56;;;;;;;2.23;2.13;;;12.70;99.90;;;;;;4926025;29;21106;-77
2022/09/01 03:49:14;;;;;;;2.33;2.10;;;12.70;99.90;;;;;;4927530;29;20596;-77
2022/09/01 03:52:28;;;;;;;2.10;1.90;;;12.70;99.90;;;;;;4928145;29;20462;-77
2022/09/01 03:55:41;;;;;;;2.40;2.30;;;12.70;99.90;;;;;;4923132;29;21799;-76
2022/09/01 03:58:45;;;;;;;2.60;2.40;;;12.70;99.90;;;;;;4926667;29;20476;-77
2022/09/01 04:01:48;;;;;;;3.60;2.20;;;12.60;99.90;;;;;;4925788;29;20488;-77
2022/09/01 04:04:45;;;;;;;2.87;2.67;;;12.60;99.90;;;;;;4920921;29;21004;-77
2022/09/01 04:07:53;;;;;;;2.80;2.60;;;12.60;99.90;;;;;;4926685;29;20491;-76
2022/09/01 04:11:03;;;;;;;2.90;2.70;;;12.50;99.90;;;;;;4920781;29;20444;-76
2022/09/01 04:14:06;;;;;;;2.60;2.50;;;12.50;99.90;;;;;;4931901;29;20874;-77
2022/09/01 04:20:26;;;;;;;2.97;2.40;;;12.40;99.90;;;;;;4929352;29;20622;-76
2022/09/01 04:23:33;;;;;;;2.70;2.50;;;12.40;99.90;;;;;;4908733;29;20495;-76
2022/09/01 04:26:41;;;;;;;2.40;2.20;;;12.40;99.90;;;;;;4930910;29;20592;-76
2022/09/01 04:29:48;;;;;;;2.60;2.40;;;12.40;99.90;;;;;;4928941;29;20626;-77
2022/09/01 04:32:55;;;;;;;2.77;2.57;;;12.40;99.90;;;;;;4923340;28;20968;-77
2022/09/01 04:36:39;;;;;;;3.43;2.40;;;12.40;99.90;;;;;;4928313;28;20828;-77
2022/09/01 04:39:38;;;;;;;2.47;2.37;;;12.30;99.90;;;;;;4927109;29;20555;-77
2022/09/01 04:42:38;;;;;;;2.50;2.30;;;12.30;99.90;;;;;;4927571;29;20988;-77
2022/09/01 04:45:40;;;;;;;3.17;2.87;;;12.30;99.90;;;;;;4930408;28;20546;-77
2022/09/01 04:49:02;;;;;;;2.70;2.50;;;12.30;99.90;;;;;;4925541;29;21055;-77
2022/09/01 04:52:09;;;;;;;2.57;2.43;;;12.30;99.90;;;;;;4927688;28;20452;-78
2022/09/01 04:55:23;;;;;;;3.07;2.80;;;12.20;99.90;;;;;;4925330;28;21609;-77
2022/09/01 04:58:27;;;;;;;3.43;3.13;;;12.30;99.90;;;;;;4926152;29;20455;-74
2022/09/01 05:01:42;;;;;;;2.73;2.53;;;12.20;99.90;;;;;;4928706;29;20494;-73
2022/09/01 05:04:45;;;;;;;3.00;2.80;;;12.20;99.90;;;;;;4926511;29;20559;-73
2022/09/01 05:07:51;;;;;;;3.23;3.03;;;12.30;99.90;;;;;;4927139;29;20469;-73
2022/09/01 05:11:16;;;;;;;3.10;2.80;;;12.30;99.90;;;;;;4924130;29;20460;-73
2022/09/01 05:14:24;;;;;;;3.00;2.80;;;12.30;99.90;;;;;;4910584;29;20547;-77
2022/09/01 05:17:37;;;;;;;3.50;2.80;;;12.30;99.90;;;;;;4916282;29;20625;-76
2022/09/01 05:20:52;;;;;;;3.00;2.77;;;12.40;99.90;;;;;;4913461;29;20558;-77
2022/09/01 05:23:42;;;;;;;4.03;2.80;;;12.40;99.90;;;;;;4920368;29;20516;-77
2022/09/01 05:27:21;;;;;;;3.37;3.10;;;12.50;99.90;;;;;;4927081;29;20491;-77
2022/09/01 05:30:19;;;;;;;3.00;2.80;;;12.50;99.90;;;;;;4922693;29;20459;-77
2022/09/01 05:33:15;;;;;;;3.20;2.90;;;12.40;99.90;;;;;;4924700;29;20499;-76
2022/09/01 05:36:21;;;;;;;3.40;3.00;;;12.50;99.90;;;;;;4930860;29;20480;-77
2022/09/01 05:39:32;;;;;;;5.40;3.43;;;12.50;99.90;;;;;;4928960;29;20475;-77
2022/09/01 05:42:38;;;;;;;3.40;2.90;;;12.50;99.90;;;;;;4922943;29;20558;-76
2022/09/01 05:45:41;;;;;;;3.17;2.83;;;12.60;99.90;;;;;;4927608;29;20466;-77
2022/09/01 05:49:15;;;;;;;3.00;2.80;;;12.60;99.90;;;;;;4928404;29;20547;-77
2022/09/01 05:52:16;;;;;;;5.23;3.73;;;12.60;99.90;;;;;;4927283;29;20495;-77
2022/09/01 05:55:25;;;;;;;3.20;3.00;;;12.70;99.90;;;;;;4928059;29;20987;-77
2022/09/01 05:58:31;;;;;;;3.60;2.60;;;12.70;99.90;;;;;;4928949;29;20463;-76
2022/09/01 06:01:46;;;;;;;3.00;2.80;;;12.80;99.90;;;;;;4925185;29;21309;-76
2022/09/01 06:04:40;;;;;;;3.27;2.97;;;12.90;99.90;;;;;;4916059;29;20550;-77
2022/09/01 06:07:36;;;;;;;3.00;2.70;;;12.90;99.90;;;;;;4922157;29;20476;-77
2022/09/01 06:10:29;;;;;;;3.23;2.60;;;13.00;99.90;;;;;;4927309;29;20466;-77
2022/09/01 06:13:20;;;;;;;2.80;2.60;;;13.10;99.90;;;;;;4929617;29;20484;-77
2022/09/01 06:16:16;;;;;;;4.40;3.97;;;13.10;99.90;;;;;;4927103;29;20490;-77
2022/09/01 06:19:11;;;;;;;3.23;3.03;;;13.20;99.90;;;;;;4924255;29;20471;-77
2022/09/01 06:22:04;;;;;;;3.90;3.03;;;13.30;99.90;;;;;;4928519;29;20464;-76
2022/09/01 06:24:58;;;;;;;3.63;2.80;;;13.40;99.90;;;;;;4924121;29;20910;-77
2022/09/01 06:27:51;;;;;;;3.20;2.90;;;13.50;99.90;;;;;;4930821;29;20487;-77
2022/09/01 06:30:43;;;;;;;3.13;2.83;;;13.50;99.90;;;;;;4931683;29;20460;-77
2022/09/01 06:33:34;;;;;;;4.53;2.30;;;13.60;99.90;;;;;;4929620;29;20453;-77
2022/09/01 06:36:31;;;;;;;4.30;2.30;;;13.70;99.90;;;;;;4928922;29;20988;-78
2022/09/01 06:39:25;;;;;;;2.23;2.13;;;13.80;99.90;;;;;;4931467;29;20463;-77
2022/09/01 06:42:19;;;;;;;3.00;2.70;;;13.90;99.90;;;;;;4932056;29;20558;-77
2022/09/01 06:45:10;;;;;;;3.13;2.00;;;14.00;99.90;;;;;;4932151;29;20502;-77
2022/09/01 06:48:03;;;;;;;2.27;2.07;;;14.00;99.90;;;;;;4927166;29;20829;-77
2022/09/01 06:50:52;;;;;;;3.20;2.20;;;14.10;99.90;;;;;;4927578;29;21047;-77
2022/09/01 06:54:06;;;;;;;2.03;1.90;;;14.20;99.90;;;;;;4932767;29;20459;-77
2022/09/01 06:57:09;;;;;;;3.73;1.93;;;14.30;99.90;;;;;;4930311;29;20506;-78
2022/09/01 07:00:23;;;;;;;4.33;2.20;;;14.40;99.90;;;;;;4930409;29;21002;-77
2022/09/01 07:03:15;;;;;;;2.70;1.90;;;14.50;99.90;;;;;;4926219;29;20468;-77
2022/09/01 07:06:09;;;;;;;1.80;1.70;;;14.60;99.90;;;;;;4932424;28;20471;-77
2022/09/01 07:09:19;;;;;;;1.93;1.80;;;14.70;99.90;;;;;;4930639;28;21033;-77
2022/09/01 07:12:30;;;;;;;1.80;1.50;;;14.80;99.90;;;;;;4928028;29;20460;-77
2022/09/01 07:15:22;;;;;;;1.70;1.60;;;14.90;99.90;;;;;;4929796;29;20460;-75
2022/09/01 07:18:31;;;;;;;1.40;1.30;;;15.00;99.90;;;;;;4928664;29;20829;-75
2022/09/01 07:21:25;;;;;;;3.20;1.37;;;15.10;99.90;;;;;;4932048;29;20531;-74
2022/09/01 07:24:38;;;;;;;1.77;1.60;;;15.20;99.90;;;;;;4931807;29;20467;-75
2022/09/01 07:27:28;;;;;;;1.50;1.20;;;15.30;99.90;;;;;;4927666;29;20470;-74
2022/09/01 07:30:42;;;;;;;1.03;1.03;;;15.40;99.90;;;;;;4929305;28;20471;-75
2022/09/01 07:33:33;;;;;;;1.33;1.03;;;15.50;99.90;;;;;;4928128;29;20456;-75
2022/09/01 07:36:31;;;;;;;1.50;1.20;;;15.60;99.90;;;;;;4930138;28;20527;-74
2022/09/01 07:39:43;;;;;;;1.83;1.40;;;15.80;99.90;;;;;;4930165;29;20522;-75
2022/09/01 07:42:41;;;;;;;1.37;1.27;;;15.90;99.90;;;;;;4931839;28;20463;-75
2022/09/01 07:45:54;;;;;;;1.33;1.23;;;16.00;99.90;;;;;;4931463;28;20478;-75
2022/09/01 07:48:49;;;;;;;1.17;1.00;;;16.20;99.90;;;;;;4930810;29;20487;-75
2022/09/01 07:52:02;;;;;;;3.03;1.17;;;16.20;99.90;;;;;;4929976;29;20452;-75
2022/09/01 07:54:52;;;;;;;0.90;0.90;;;16.30;99.90;;;;;;4924567;29;20463;-75
2022/09/01 07:57:42;;;;;;;1.50;1.00;;;16.40;99.90;;;;;;4926877;29;20487;-75
2022/09/01 08:00:35;;;;;;;1.80;1.10;;;16.60;99.90;;;;;;4925692;28;20582;-75
2022/09/01 08:03:26;;;;;;;1.90;0.93;;;16.60;99.90;;;;;;4925802;29;20460;-75
2022/09/01 08:06:23;;;;;;;1.70;0.93;;;16.80;99.90;;;;;;4931461;29;20476;-75
2022/09/01 08:09:17;;;;;;;1.60;1.10;;;16.80;99.90;;;;;;4929213;29;20452;-74
2022/09/01 08:12:19;;;;;;;0.90;0.87;;;16.90;99.90;;;;;;4931442;29;21055;-74
2022/09/01 08:15:16;;;;;;;2.30;0.97;;;17.00;99.90;;;;;;4927644;29;20457;-74
2022/09/01 08:18:31;;;;;;;2.70;1.03;;;17.10;99.90;;;;;;4926929;29;20820;-74
2022/09/01 08:21:42;;;;;;;1.63;0.77;;;17.20;99.90;;;;;;4928187;28;20496;-74
2022/09/01 08:24:32;;;;;;;1.00;0.90;;;17.30;99.90;;;;;;4929850;29;20453;-74
2022/09/01 08:27:21;;;;;;;0.70;0.70;;;17.40;99.90;;;;;;4931595;29;20618;-74
2022/09/01 08:30:16;;;;;;;0.80;0.80;;;17.50;99.90;;;;;;4927221;29;20966;-75
2022/09/01 08:33:10;;;;;;;0.70;0.70;;;17.60;99.90;;;;;;4925243;29;20475;-74
2022/09/01 08:35:59;;;;;;;0.87;0.87;;;17.70;99.90;;;;;;4923623;29;20476;-74
2022/09/01 08:38:47;;;;;;;0.80;0.80;;;17.80;99.90;;;;;;4930620;29;20543;-74
2022/09/01 08:41:47;;;;;;;0.80;0.80;;;17.90;99.90;;;;;;4927910;29;20488;-74
2022/09/01 08:44:44;;;;;;;1.00;0.90;;;18.00;99.90;;;;;;4930590;29;20853;-76
2022/09/01 08:47:33;;;;;;;0.80;0.80;;;18.10;99.90;;;;;;4927612;29;20480;-77
2022/09/01 08:50:43;;;;;;;0.60;0.60;;;18.20;99.90;;;;;;4930139;29;20863;-77
2022/09/01 08:53:47;;;;;;;0.80;0.80;;;18.20;99.90;;;;;;4928859;29;20920;-77
2022/09/01 08:56:39;;;;;;;1.30;1.20;;;18.30;99.90;;;;;;4930287;29;20535;-77
2022/09/01 08:59:31;;;;;;;3.00;0.73;;;18.40;99.90;;;;;;4925759;29;20600;-77
2022/09/01 09:02:43;;;;;;;0.70;0.70;;;18.50;99.90;;;;;;4928493;29;20562;-77
2022/09/01 09:05:39;;;;;;;1.03;0.93;;;18.60;99.90;;;;;;4927545;29;20546;-77
2022/09/01 09:08:48;;;;;;;1.00;0.83;;;18.70;99.90;;;;;;4928599;29;21074;-77
2022/09/01 09:11:50;;;;;;;0.90;0.80;;;18.70;99.90;;;;;;4926053;29;20472;-77
2022/09/01 09:14:52;;;;;;;1.90;1.17;;;18.80;99.90;;;;;;4926324;29;20577;-77
2022/09/01 09:17:52;;;;;;;0.90;0.90;;;18.90;99.90;;;;;;4929667;29;20968;-77
2022/09/01 09:20:53;;;;;;;1.33;0.70;;;18.90;99.90;;;;;;4927848;29;20566;-77
2022/09/01 09:23:47;;;;;;;0.83;0.83;;;19.00;99.90;;;;;;4928300;29;20919;-77
2022/09/01 09:26:35;;;;;;;1.07;0.97;;;19.10;99.90;;;;;;4927852;29;20635;-77
2022/09/01 09:29:34;;;;;;;0.80;0.70;;;19.20;99.90;;;;;;4927900;29;20576;-77
2022/09/01 09:32:41;;;;;;;0.87;0.87;;;19.30;99.90;;;;;;4923059;29;20542;-77
2022/09/01 09:35:53;;;;;;;1.30;1.00;;;19.40;99.90;;;;;;4928540;28;21112;-77
2022/09/01 09:38:41;;;;;;;1.07;0.77;;;19.40;99.90;;;;;;4928926;29;20452;-77
2022/09/01 09:41:32;;;;;;;0.70;0.70;;;19.50;99.90;;;;;;4929360;29;20488;-76
2022/09/01 09:44:31;;;;;;;1.60;0.80;;;19.50;99.90;;;;;;4928130;29;20456;-77
2022/09/01 09:47:38;;;;;;;3.93;0.87;;;19.60;99.90;;;;;;4928910;29;20687;-77
2022/09/01 09:50:34;;;;;;;0.80;0.80;;;19.60;99.90;;;;;;4927473;29;20547;-77
2022/09/01 09:53:31;;;;;;;2.50;1.10;;;19.70;99.90;;;;;;4928718;29;20512;-77
2022/09/01 09:56:43;;;;;;;1.13;1.03;;;19.80;99.90;;;;;;4932177;29;20521;-77
2022/09/01 09:59:35;;;;;;;0.80;0.80;;;19.90;99.90;;;;;;4933821;29;20463;-77
2022/09/01 10:02:53;;;;;;;1.63;0.70;;;20.00;99.90;;;;;;4930404;29;20550;-77
2022/09/01 10:05:50;;;;;;;2.53;0.60;;;20.10;99.90;;;;;;4930751;29;20578;-77
2022/09/01 10:08:46;;;;;;;0.70;0.70;;;20.10;99.90;;;;;;4929068;29;20451;-77
2022/09/01 10:11:38;;;;;;;0.93;0.90;;;20.20;99.90;;;;;;4934834;29;20503;-77
2022/09/01 10:14:33;;;;;;;0.73;0.73;;;20.20;99.90;;;;;;4931290;28;20470;-77
2022/09/01 10:17:44;;;;;;;0.90;0.87;;;20.30;99.90;;;;;;4932531;28;20475;-77
2022/09/01 10:20:39;;;;;;;1.10;1.00;;;20.50;99.90;;;;;;4933920;28;20470;-77
2022/09/01 10:23:30;;;;;;;1.13;1.03;;;20.50;99.90;;;;;;4926414;29;20484;-78
2022/09/01 10:26:25;;;;;;;1.23;0.70;;;20.60;99.90;;;;;;4931349;29;20471;-78
2022/09/01 10:29:21;;;;;;;0.80;0.80;;;20.70;99.90;;;;;;4933151;29;20538;-78
2022/09/01 10:32:17;;;;;;;0.80;0.80;;;20.80;99.90;;;;;;4933933;29;20547;-78
2022/09/01 10:35:30;;;;;;;1.10;1.00;;;20.90;99.90;;;;;;4930560;29;20478;-78
2022/09/01 10:38:25;;;;;;;0.87;0.80;;;21.00;99.90;;;;;;4933140;29;20452;-78
2022/09/01 10:41:50;;;;;;;1.00;0.90;;;21.10;99.90;;;;;;4926835;29;20463;-77
2022/09/01 10:45:00;;;;;;;0.83;0.83;;;21.10;99.90;;;;;;4929942;28;21109;-77
2022/09/01 10:47:51;;;;;;;0.83;0.83;;;21.30;99.90;;;;;;4930866;29;20983;-78
2022/09/01 10:50:39;;;;;;;1.53;0.73;;;21.40;99.90;;;;;;4937603;28;20547;-77
2022/09/01 10:53:50;;;;;;;0.90;0.90;;;21.50;99.90;;;;;;4930558;29;20508;-77
2022/09/01 10:56:46;;;;;;;0.70;0.70;;;21.50;99.90;;;;;;4933540;28;20532;-76
2022/09/01 10:59:39;;;;;;;1.80;1.00;;;21.60;99.90;;;;;;4930616;29;20965;-77
2022/09/01 11:02:42;;;;;;;0.80;0.80;;;21.60;99.90;;;;;;4932287;29;20543;-77
2022/09/01 11:06:01;;;;;;;2.40;0.80;;;21.50;99.90;;;;;;4927732;29;20467;-77
2022/09/01 11:09:16;;;;;;;0.70;0.70;;;21.50;99.90;;;;;;4929899;29;20463;-77
2022/09/01 11:12:37;;;;;;;1.50;0.90;;;21.50;99.90;;;;;;4928119;28;20484;-77
2022/09/01 11:15:38;;;;;;;1.20;0.80;;;21.50;99.90;;;;;;4931140;29;20504;-77
2022/09/01 11:18:36;;;;;;;2.40;0.90;;;21.50;99.90;;;;;;4930216;29;20878;-77
2022/09/01 11:21:28;;;;;;;1.20;0.90;;;21.50;99.90;;;;;;4926081;28;20854;-78
2022/09/01 11:24:47;;;;;;;0.83;0.80;;;21.60;99.90;;;;;;4928493;29;20522;-78
2022/09/01 11:28:06;;;;;;;2.90;0.93;;;21.80;99.90;;;;;;4929766;29;20554;-78
2022/09/01 11:30:59;;;;;;;1.13;0.77;;;21.90;99.90;;;;;;4931616;29;20999;-78
2022/09/01 11:34:00;;;;;;;2.60;0.83;;;22.10;99.90;;;;;;4932641;29;20466;-77
2022/09/01 11:37:00;;;;;;;0.90;0.70;;;22.10;99.90;;;;;;4929215;29;20473;-78
2022/09/01 11:39:56;;;;;;;0.73;0.73;;;22.20;99.90;;;;;;4929312;29;20471;-78
2022/09/01 11:42:49;;;;;;;0.97;0.87;;;22.20;99.90;;;;;;4931257;28;20492;-78
2022/09/01 11:45:44;;;;;;;0.67;0.67;;;22.30;99.90;;;;;;4929825;28;20634;-79
2022/09/01 11:48:41;;;;;;;0.93;0.93;;;22.40;99.90;;;;;;4927419;29;20467;-78
2022/09/01 11:51:48;;;;;;;1.00;0.70;;;22.60;99.90;;;;;;4925914;29;20451;-79
2022/09/01 11:54:46;;;;;;;1.53;0.90;;;22.80;99.90;;;;;;4930744;29;20882;-79
2022/09/01 11:57:39;;;;;;;0.93;0.83;;;22.80;99.90;;;;;;4930751;29;20511;-78
2022/09/01 12:00:31;;;;;;;1.10;0.97;;;22.80;99.90;;;;;;4928634;28;20492;-78
2022/09/01 12:03:22;;;;;;;0.80;0.80;;;22.80;99.90;;;;;;4925408;29;20499;-78
2022/09/01 12:06:21;;;;;;;0.80;0.80;;;22.80;99.90;;;;;;4930668;29;20560;-78
2022/09/01 12:09:10;;;;;;;1.43;0.83;;;22.80;99.90;;;;;;4927522;29;20491;-79
2022/09/01 12:12:02;;;;;;;0.97;0.83;;;22.60;99.90;;;;;;4929688;29;20562;-79
2022/09/01 12:14:57;;;;;;;1.10;1.00;;;22.60;99.90;;;;;;4926181;29;20560;-79
2022/09/01 12:18:09;;;;;;;2.27;0.90;;;22.50;99.90;;;;;;4931245;28;20596;-78
2022/09/01 12:21:01;;;;;;;1.00;0.87;;;22.60;99.90;;;;;;4924953;29;20888;-78
2022/09/01 12:23:53;;;;;;;1.93;1.20;;;22.70;99.90;;;;;;4924764;28;20524;-76
2022/09/01 12:26:47;;;;;;;1.03;0.70;;;22.70;99.90;;;;;;4930156;29;20618;-76
2022/09/01 12:29:37;;;;;;;0.80;0.80;;;22.70;99.90;;;;;;4932336;29;20602;-76
2022/09/01 12:32:27;;;;;;;0.93;0.90;;;22.60;99.90;;;;;;4930396;29;20599;-76
2022/09/01 12:35:18;;;;;;;0.90;0.90;;;22.70;99.90;;;;;;4931791;28;20555;-75
2022/09/01 12:38:31;;;;;;;1.00;0.90;;;22.70;99.90;;;;;;4930214;29;20550;-75
2022/09/01 12:41:31;;;;;;;1.00;1.00;;;22.70;99.90;;;;;;4932622;29;20479;-76
2022/09/01 12:44:29;;;;;;;1.33;1.00;;;22.70;99.90;;;;;;4927094;29;20475;-76
2022/09/01 12:47:54;;;;;;;2.33;1.10;;;22.60;99.90;;;;;;4925170;29;20488;-74
2022/09/01 12:50:46;;;;;;;1.70;1.00;;;22.50;99.90;;;;;;4928367;29;20460;-75
2022/09/01 12:53:51;;;;;;;1.83;0.97;;;22.40;99.90;;;;;;4928273;29;20504;-74
2022/09/01 12:56:46;;;;;;;1.53;0.90;;;22.30;99.90;;;;;;4930530;29;20488;-74
2022/09/01 12:59:35;;;;;;;2.20;1.20;;;22.30;99.90;;;;;;4928377;29;20487;-75
2022/09/01 13:02:33;;;;;;;1.60;0.90;;;22.40;99.90;;;;;;4925698;29;20463;-75
2022/09/01 13:05:30;;;;;;;1.20;0.90;;;22.50;99.90;;;;;;4920521;29;20452;-73
2022/09/01 13:08:32;;;;;;;0.83;0.83;;;22.50;99.90;;;;;;4927067;29;20490;-73
2022/09/01 13:11:22;;;;;;;1.27;1.10;;;22.50;99.90;;;;;;4928129;28;21023;-74
2022/09/01 13:14:12;;;;;;;0.90;0.90;;;22.60;99.90;;;;;;4928963;29;20491;-73
2022/09/01 13:17:03;;;;;;;1.10;0.90;;;22.60;99.90;;;;;;4925429;29;20483;-73
2022/09/01 13:19:51;;;;;;;1.90;0.90;;;22.60;99.90;;;;;;4925340;29;20487;-74
2022/09/01 13:22:43;;;;;;;1.10;1.00;;;22.50;99.90;;;;;;4930531;28;20472;-75
2022/09/01 13:25:35;;;;;;;2.60;1.00;;;22.50;99.90;;;;;;4931084;29;20468;-75
2022/09/01 13:28:26;;;;;;;1.63;0.80;;;22.50;99.90;;;;;;4930696;29;20588;-74
2022/09/01 13:31:17;;;;;;;1.70;1.60;;;22.40;99.90;;;;;;4931278;29;20464;-75
2022/09/01 13:34:23;;;;;;;1.30;1.20;;;22.40;99.90;;;;;;4927645;29;20482;-74
2022/09/01 13:37:12;;;;;;;1.10;1.10;;;22.30;99.90;;;;;;4934635;29;20495;-74
2022/09/01 13:40:00;;;;;;;1.27;1.03;;;22.30;99.90;;;;;;4931043;29;20523;-74
2022/09/01 13:42:53;;;;;;;1.13;1.00;;;22.30;99.90;;;;;;4933788;29;20513;-74
2022/09/01 13:45:52;;;;;;;1.00;1.00;;;22.30;99.90;;;;;;4932977;29;21074;-74
2022/09/01 13:48:41;;;;;;;1.10;1.10;;;22.30;99.90;;;;;;4928899;29;20555;-75
2022/09/01 13:51:51;;;;;;;1.47;1.30;;;22.30;99.90;;;;;;4932844;29;20452;-74
2022/09/01 13:54:43;;;;;;;0.90;0.90;;;22.40;99.90;;;;;;4933196;29;21281;-74
2022/09/01 13:57:34;;;;;;;2.50;1.10;;;22.50;99.90;;;;;;4932891;29;20528;-75
2022/09/01 14:00:29;;;;;;;4.10;1.27;;;22.80;99.90;;;;;;4931548;29;20454;-75
2022/09/01 14:03:26;;;;;;;2.20;0.90;;;23.10;99.90;;;;;;4928996;29;20535;-75
2022/09/01 14:06:15;;;;;;;3.73;1.20;;;23.50;99.90;;;;;;4928133;29;20988;-74
2022/09/01 14:09:04;;;;;;;0.80;0.80;;;23.70;99.90;;;;;;4925983;29;20550;-74
2022/09/01 14:11:57;;;;;;;0.90;0.87;;;23.70;99.90;;;;;;4931279;29;20995;-74
2022/09/01 14:14:49;;;;;;;1.13;0.90;;;23.60;99.90;;;;;;4925769;28;20499;-74
2022/09/01 14:18:00;;;;;;;1.10;1.10;;;23.50;99.90;;;;;;4919509;29;20486;-74
2022/09/01 14:20:50;;;;;;;1.73;1.00;;;23.40;99.90;;;;;;4918176;28;20521;-75
2022/09/01 14:23:44;;;;;;;2.47;0.80;;;23.40;99.90;;;;;;4922763;29;20491;-74
2022/09/01 14:26:32;;;;;;;1.37;1.00;;;23.40;99.90;;;;;;4926252;29;20479;-75
2022/09/01 14:29:23;;;;;;;0.90;0.90;;;23.40;99.90;;;;;;4925616;29;20999;-76
2022/09/01 14:32:15;;;;;;;2.20;1.20;;;23.40;99.90;;;;;;4922979;29;20463;-73
2022/09/01 14:35:07;;;;;;;1.03;0.93;;;23.50;99.90;;;;;;4931203;29;20463;-73
2022/09/01 14:37:56;;;;;;;1.60;0.83;;;23.50;99.90;;;;;;4923195;28;20478;-71
2022/09/01 14:40:49;;;;;;;0.90;0.90;;;23.40;99.90;;;;;;4932857;29;20524;-72
2022/09/01 14:43:41;;;;;;;1.10;1.00;;;23.30;99.90;;;;;;4926052;29;20519;-71
2022/09/01 14:46:32;;;;;;;1.10;1.00;;;23.20;99.90;;;;;;4924268;29;20472;-72
2022/09/01 14:49:25;;;;;;;1.87;0.90;;;23.10;99.90;;;;;;4930754;29;20452;-72
2022/09/01 14:52:17;;;;;;;0.80;0.80;;;23.00;99.90;;;;;;4927313;29;20514;-73
2022/09/01 14:55:06;;;;;;;1.00;0.90;;;22.90;99.90;;;;;;4929089;29;20870;-72
2022/09/01 14:57:55;;;;;;;1.27;1.00;;;22.80;99.90;;;;;;4930709;29;20606;-73
2022/09/01 15:00:44;;;;;;;1.17;1.07;;;22.70;99.90;;;;;;4932706;29;20587;-72
2022/09/01 15:03:44;;;;;;;1.43;1.07;;;22.90;99.90;;;;;;4925873;29;20474;-72
2022/09/01 15:06:36;;;;;;;3.07;1.03;;;23.10;99.90;;;;;;4931059;28;20662;-72
2022/09/01 15:09:29;;;;;;;1.67;0.80;;;23.10;99.90;;;;;;4922238;28;20459;-73
2022/09/01 15:12:21;;;;;;;1.20;1.10;;;23.20;99.90;;;;;;4925250;29;20491;-72
2022/09/01 15:15:11;;;;;;;1.20;1.00;;;23.20;99.90;;;;;;4927449;29;21051;-72
2022/09/01 15:18:09;;;;;;;1.03;1.00;;;23.20;99.90;;;;;;4926545;29;20935;-73
2022/09/01 15:20:59;;;;;;;3.43;1.20;;;23.10;99.90;;;;;;4925881;29;20464;-72
2022/09/01 15:23:53;;;;;;;2.13;1.00;;;23.10;99.90;;;;;;4930043;29;20623;-75
2022/09/01 15:26:43;;;;;;;1.00;1.00;;;23.10;99.90;;;;;;4918884;29;20650;-75
2022/09/01 15:29:35;;;;;;;1.00;0.90;;;23.00;99.90;;;;;;4926369;28;20467;-75
2022/09/01 15:32:31;;;;;;;2.30;1.20;;;23.00;99.90;;;;;;4932598;29;20449;-74
2022/09/01 15:35:22;;;;;;;1.13;1.03;;;22.80;99.90;;;;;;4926615;29;20472;-74
2022/09/01 15:38:12;;;;;;;1.13;1.03;;;22.80;99.90;;;;;;4929359;29;20460;-75
2022/09/01 15:41:07;;;;;;;1.27;1.17;;;22.70;99.90;;;;;;4928526;29;20480;-75
2022/09/01 15:44:07;;;;;;;0.90;0.90;;;22.60;99.90;;;;;;4928951;29;20452;-75
2022/09/01 15:47:03;;;;;;;1.17;1.07;;;22.50;99.90;;;;;;4932526;29;20865;-74
2022/09/01 15:49:55;;;;;;;1.23;0.90;;;22.40;99.90;;;;;;4926290;29;20467;-75
2022/09/01 15:52:54;;;;;;;1.20;1.10;;;22.30;99.90;;;;;;4925129;29;20546;-75
2022/09/01 15:55:49;;;;;;;2.60;0.90;;;22.20;99.90;;;;;;4923895;29;20475;-75
2022/09/01 15:58:37;;;;;;;1.10;1.00;;;22.20;99.90;;;;;;4921986;28;20555;-73
2022/09/01 16:01:47;;;;;;;1.00;0.90;;;22.20;99.90;;;;;;4924799;28;20630;-74
2022/09/01 16:04:38;;;;;;;1.37;0.93;;;22.10;99.90;;;;;;4926736;29;20473;-74
2022/09/01 16:07:27;;;;;;;1.33;1.23;;;22.10;99.90;;;;;;4929392;29;20563;-73
2022/09/01 16:10:21;;;;;;;2.73;0.90;;;22.00;99.90;;;;;;4927423;29;20460;-74
2022/09/01 16:13:11;;;;;;;0.83;0.83;;;22.00;99.90;;;;;;4924717;29;20479;-74
2022/09/01 16:16:13;;;;;;;1.00;1.00;;;22.00;99.90;;;;;;4921161;29;20472;-74
2022/09/01 16:19:11;;;;;;;1.13;1.03;;;22.00;99.90;;;;;;4926521;29;20467;-74